KIND/IND METAR and TAF weather

Enter ICAO airport designator
Station Type Date Time Source
KIND METAR 2019/08/21 02:54 UTC NOAA

KIND 210254Z 22006KT 10SM FEW150 BKN250 21/20 A3000 RMK AO2 SLP153 T02060200 53019 $


Station Type Date Time Source
KIND Decoded METAR 2019/08/21 02:54 UTC NOAA

Station name not available
Aug 20, 2019 - 10:54 PM EDT / 2019.08.21 0254 UTC
Wind: from the SW (220 degrees) at 7 MPH (6 KT):0
Visibility: 10 mile(s):0
Sky conditions: mostly cloudy
Temperature: 69.1 F (20.6 C)
Dew Point: 68.0 F (20.0 C)
Relative Humidity: 96%
Pressure (altimeter): 30 in. Hg (1015 hPa)
Pressure tendency: 0.06 inches (1.9 hPa) higher than three hours ago
ob: KIND 210254Z 22006KT 10SM FEW150 BKN250 21/20 A3000 RMK AO2 SLP153 T02060200 53019
cycle: 3

Station Type Date Time Source
KIND TAF 2019/08/21 02:24 UTC NOAA

TAF
AMD KIND 210221Z 2102/2206 22006KT P6SM SCT040 BKN120
FM210900 25007KT P6SM BKN026
FM211200 28006KT P6SM VCSH SCT008 OVC011
FM212000 27012KT P6SM VCSH BKN035

Example: see airport list